createdAt,value
2022-08-30T00:01:03.238Z,99309.09
2022-08-30T00:02:07.965Z,99305.63
2022-08-30T00:03:14.692Z,99297.75
2022-08-30T00:04:17.499Z,99301.53
2022-08-30T00:05:19.515Z,99294.97
2022-08-30T00:06:22.934Z,99290.91
2022-08-30T00:07:25.343Z,99297.03
2022-08-30T00:08:27.596Z,99297.16
2022-08-30T00:09:31.304Z,99296.69
2022-08-30T00:10:33.690Z,99289.31
2022-08-30T00:11:36.322Z,99290.44
2022-08-30T00:12:39.007Z,99289.31
2022-08-30T00:13:43.342Z,99286.81
2022-08-30T00:14:45.794Z,99287.75
2022-08-30T00:15:48.750Z,99291.53
2022-08-30T00:16:51.076Z,99294.94
2022-08-30T00:17:54.482Z,99304.06
2022-08-30T00:18:57.161Z,99297.63
2022-08-30T00:20:00.207Z,99297.94
2022-08-30T00:21:03.994Z,99296.25
2022-08-30T00:22:07.327Z,99303.75
2022-08-30T00:23:09.648Z,99310.16
2022-08-30T00:24:11.673Z,99317.22
2022-08-30T00:25:16.538Z,99325.47
2022-08-30T00:26:21.109Z,99314.53
2022-08-30T00:27:23.225Z,99315.34
2022-08-30T00:28:25.331Z,99310.94
2022-08-30T00:29:27.447Z,99305.13
2022-08-30T00:30:29.704Z,99312.34
2022-08-30T00:31:31.890Z,99304.03
2022-08-30T00:32:34.172Z,99307.97
2022-08-30T00:33:39.827Z,99305.31
2022-08-30T00:34:41.818Z,99294.22
2022-08-30T00:35:44.415Z,99305.47
2022-08-30T00:36:47.068Z,99306.56
2022-08-30T00:37:51.004Z,99307.19
2022-08-30T00:38:53.005Z,99296.56
2022-08-30T00:39:57.495Z,99295.59
2022-08-30T00:41:02.392Z,99295.59
2022-08-30T00:42:04.623Z,99290.63
2022-08-30T00:43:09.958Z,99298.41
2022-08-30T00:44:16.421Z,99295.91
2022-08-30T00:45:25.159Z,99296.66
2022-08-30T00:46:28.248Z,99297.03
2022-08-30T00:47:30.367Z,99300.78
2022-08-30T00:48:37.088Z,99301.88
2022-08-30T00:49:45.403Z,99301.88
2022-08-30T00:50:53.607Z,99289.97
2022-08-30T00:51:56.862Z,99286.84
2022-08-30T00:53:01.758Z,99285.28
2022-08-30T00:54:05.888Z,99296.56
2022-08-30T00:55:09.706Z,99293.47
2022-08-30T00:56:12.874Z,99284.22
2022-08-30T00:57:15.783Z,99284.06
2022-08-30T00:58:21.931Z,99291.41
2022-08-30T00:59:26.104Z,99290.91
2022-08-30T01:00:28.763Z,99289.03
2022-08-30T01:01:34.045Z,99283.13
2022-08-30T01:02:36.647Z,99285.63
2022-08-30T01:03:39.550Z,99287.50
2022-08-30T01:04:46.410Z,99281.72
2022-08-30T01:05:51.744Z,99289.41
2022-08-30T01:06:54.441Z,99284.38
2022-08-30T01:07:56.580Z,99289.41
2022-08-30T01:09:00.160Z,99292.22
2022-08-30T01:10:05.444Z,99291.75
2022-08-30T01:11:08.311Z,99288.81
2022-08-30T01:12:11.467Z,99281.59
2022-08-30T01:13:15.217Z,99285.03
2022-08-30T01:14:17.816Z,99278.75
2022-08-30T01:15:20.080Z,99281.28
2022-08-30T01:16:25.664Z,99285.97
2022-08-30T01:17:29.846Z,99285.03
2022-08-30T01:18:32.546Z,99279.25
2022-08-30T01:19:42.076Z,99286.44
2022-08-30T01:20:53.630Z,99280.81
2022-08-30T01:22:04.817Z,99283.81
2022-08-30T01:23:13.732Z,99290.66
2022-08-30T01:24:17.901Z,99292.69
2022-08-30T01:25:27.696Z,99286.91
2022-08-30T01:26:30.931Z,99286.44
2022-08-30T01:27:36.600Z,99290.34
2022-08-30T01:28:40.601Z,99288.16
2022-08-30T01:29:46.247Z,99288.03
2022-08-30T01:30:48.987Z,99288.16
2022-08-30T01:31:52.194Z,99290.34
2022-08-30T01:32:59.319Z,99282.97
2022-08-30T01:34:02.286Z,99285.19
2022-08-30T01:35:06.604Z,99280.03
2022-08-30T01:36:12.852Z,99284.09
2022-08-30T01:37:36.608Z,99274.09
2022-08-30T01:38:50.457Z,99277.97
2022-08-30T01:39:52.521Z,99278.47
2022-08-30T01:41:00.189Z,99279.72
2022-08-30T01:42:04.053Z,99277.69
2022-08-30T01:43:07.075Z,99276.91
2022-08-30T01:44:11.459Z,99275.34
2022-08-30T01:45:14.022Z,99272.84
2022-08-30T01:46:20.403Z,99269.38
2022-08-30T01:47:23.118Z,99273.78
2022-08-30T01:48:30.940Z,99265.66
2022-08-30T01:49:33.918Z,99259.25
2022-08-30T01:50:36.205Z,99269.88
2022-08-30T01:51:42.967Z,99276.44
2022-08-30T01:52:45.325Z,99272.69
2022-08-30T01:53:47.612Z,99283.47
2022-08-30T01:54:50.507Z,99280.16
2022-08-30T01:55:52.741Z,99289.72
2022-08-30T01:56:54.763Z,99285.19
2022-08-30T01:57:56.806Z,99288.00
2022-08-30T01:59:02.554Z,99275.06
2022-08-30T02:00:09.438Z,99281.28
2022-08-30T02:01:18.202Z,99294.91
2022-08-30T02:02:26.116Z,99290.22
2022-08-30T02:03:33.145Z,99290.03
2022-08-30T02:04:36.948Z,99298.50
2022-08-30T02:05:39.304Z,99293.78
2022-08-30T02:06:41.829Z,99287.56
2022-08-30T02:07:44.078Z,99290.66
2022-08-30T02:08:46.883Z,99290.38
2022-08-30T02:09:49.187Z,99291.63
2022-08-30T02:10:51.512Z,99288.16
2022-08-30T02:11:53.724Z,99294.25
2022-08-30T02:12:55.892Z,99285.66
2022-08-30T02:13:57.979Z,99283.78
2022-08-30T02:15:00.976Z,99285.38
2022-08-30T02:16:04.154Z,99281.44
2022-08-30T02:17:11.291Z,99281.78
2022-08-30T02:18:13.300Z,99285.69
2022-08-30T02:19:18.175Z,99283.81
2022-08-30T02:20:20.579Z,99281.59
2022-08-30T02:21:23.337Z,99278.31
2022-08-30T02:22:25.353Z,99274.56
2022-08-30T02:23:27.866Z,99283.50
2022-08-30T02:24:30.554Z,99281.94
2022-08-30T02:25:32.828Z,99277.88
2022-08-30T02:26:36.916Z,99285.69
2022-08-30T02:27:39.191Z,99281.94
2022-08-30T02:28:50.075Z,99280.53
2022-08-30T02:29:55.632Z,99287.44
2022-08-30T02:30:58.199Z,99286.66
2022-08-30T02:32:03.199Z,99288.34
2022-08-30T02:33:08.004Z,99285.38
2022-08-30T02:34:10.396Z,99291.66
2022-08-30T02:35:12.668Z,99292.88
2022-08-30T02:36:18.297Z,99290.41
2022-08-30T02:37:20.709Z,99288.84
2022-08-30T02:38:27.234Z,99295.88
2022-08-30T02:39:29.366Z,99294.00
2022-08-30T02:40:31.687Z,99296.19
2022-08-30T02:41:34.367Z,99289.78
2022-08-30T02:42:37.759Z,99301.97
2022-08-30T02:43:40.288Z,99293.22
2022-08-30T02:44:42.459Z,99297.28
2022-08-30T02:45:44.609Z,99298.53
2022-08-30T02:46:48.260Z,99291.03
2022-08-30T02:47:50.439Z,99296.66
2022-08-30T02:48:54.615Z,99306.16
2022-08-30T02:49:58.234Z,99303.53
2022-08-30T02:51:07.227Z,99302.28
2022-08-30T02:52:14.194Z,99298.22
2022-08-30T02:53:16.924Z,99293.22
2022-08-30T02:54:20.268Z,99292.72
2022-08-30T02:55:23.593Z,99298.19
2022-08-30T02:56:26.529Z,99299.13
2022-08-30T02:57:29.639Z,99300.72
2022-08-30T02:58:31.997Z,99297.28
2022-08-30T02:59:41.847Z,99293.81
2022-08-30T03:00:45.256Z,99299.13
2022-08-30T03:01:47.541Z,99298.34
2022-08-30T03:02:52.213Z,99303.53
2022-08-30T03:03:54.449Z,99299.13
2022-08-30T03:04:57.901Z,99300.84
2022-08-30T03:06:00.161Z,99303.06
2022-08-30T03:07:02.303Z,99301.66
2022-08-30T03:08:06.713Z,99305.41
2022-08-30T03:09:09.091Z,99307.72
2022-08-30T03:10:12.172Z,99308.22
2022-08-30T03:11:16.212Z,99305.22
2022-08-30T03:12:18.471Z,99301.66
2022-08-30T03:13:21.311Z,99300.72
2022-08-30T03:14:24.381Z,99304.78
2022-08-30T03:15:27.539Z,99306.66
2022-08-30T03:16:29.754Z,99299.16
2022-08-30T03:17:32.158Z,99301.97
2022-08-30T03:18:34.406Z,99305.56
2022-08-30T03:19:37.789Z,99300.72
2022-08-30T03:20:46.335Z,99303.50
2022-08-30T03:21:56.483Z,99306.34
2022-08-30T03:22:58.546Z,99308.53
2022-08-30T03:24:00.562Z,99295.06
2022-08-30T03:25:03.905Z,99303.50
2022-08-30T03:26:06.974Z,99301.34
2022-08-30T03:27:09.243Z,99296.63
2022-08-30T03:28:12.116Z,99302.56
2022-08-30T03:29:14.489Z,99307.09
2022-08-30T03:30:18.517Z,99296.44
2022-08-30T03:31:23.388Z,99293.75
2022-08-30T03:32:25.707Z,99292.81
2022-08-30T03:33:28.451Z,99296.88
2022-08-30T03:34:38.190Z,99290.63
2022-08-30T03:35:40.913Z,99296.06
2022-08-30T03:36:43.042Z,99297.16
2022-08-30T03:37:46.277Z,99289.78
2022-08-30T03:38:48.425Z,99294.63
2022-08-30T03:39:50.596Z,99298.09
2022-08-30T03:40:53.949Z,99296.44
2022-08-30T03:41:56.151Z,99293.66
2022-08-30T03:43:01.255Z,99293.66
2022-08-30T03:44:04.365Z,99285.47
2022-08-30T03:45:08.430Z,99298.25
2022-08-30T03:46:11.565Z,99296.66
2022-08-30T03:47:13.750Z,99293.19
2022-08-30T03:48:15.954Z,99296.66
2022-08-30T03:49:19.028Z,99303.78
2022-08-30T03:50:22.023Z,99300.13
2022-08-30T03:51:25.807Z,99300.63
2022-08-30T03:52:28.527Z,99303.78
2022-08-30T03:53:30.637Z,99304.53
2022-08-30T03:54:33.394Z,99303.44
2022-08-30T03:55:35.771Z,99305.28
2022-08-30T03:56:38.051Z,99296.19
2022-08-30T03:57:43.549Z,99297.38
2022-08-30T03:58:45.983Z,99299.16
2022-08-30T03:59:48.084Z,99295.38
2022-08-30T04:00:50.406Z,99297.38
2022-08-30T04:01:52.942Z,99293.88
2022-08-30T04:02:55.219Z,99296.50
2022-08-30T04:03:57.293Z,99295.25
2022-08-30T04:04:59.391Z,99289.66
2022-08-30T04:06:01.610Z,99292.22
2022-08-30T04:07:04.021Z,99292.53
2022-08-30T04:08:06.716Z,99293.06
2022-08-30T04:09:10.363Z,99293.13
2022-08-30T04:10:12.447Z,99299.06
2022-08-30T04:11:17.716Z,99294.75
2022-08-30T04:12:22.943Z,99295.53
2022-08-30T04:13:25.786Z,99293.59
2022-08-30T04:14:28.083Z,99300.28
2022-08-30T04:15:30.520Z,99305.00
2022-08-30T04:16:39.482Z,99302.09
2022-08-30T04:17:41.866Z,99301.03
2022-08-30T04:18:43.918Z,99298.97
2022-08-30T04:19:46.067Z,99307.28
2022-08-30T04:20:48.526Z,99297.25
2022-08-30T04:21:50.695Z,99307.31
2022-08-30T04:22:55.131Z,99305.59
2022-08-30T04:23:57.695Z,99297.66
2022-08-30T04:24:59.992Z,99295.38
2022-08-30T04:26:02.248Z,99301.84
2022-08-30T04:27:05.192Z,99307.47
2022-08-30T04:28:08.276Z,99299.63
2022-08-30T04:29:17.088Z,99310.78
2022-08-30T04:30:19.270Z,99303.00
2022-08-30T04:31:22.319Z,99303.91
2022-08-30T04:32:24.651Z,99303.00
2022-08-30T04:33:26.781Z,99303.88
2022-08-30T04:34:29.913Z,99310.09
2022-08-30T04:35:32.131Z,99315.66
2022-08-30T04:36:34.254Z,99311.09
2022-08-30T04:37:38.723Z,99311.47
2022-08-30T04:38:42.195Z,99310.16
2022-08-30T04:39:44.288Z,99306.53
2022-08-30T04:40:50.314Z,99313.56
2022-08-30T04:41:52.576Z,99303.56
2022-08-30T04:42:56.440Z,99310.88
2022-08-30T04:44:03.634Z,99308.88
2022-08-30T04:45:09.724Z,99309.13
2022-08-30T04:46:14.121Z,99298.31
2022-08-30T04:47:18.743Z,99304.84
2022-08-30T04:48:25.445Z,99300.97
2022-08-30T04:49:27.556Z,99295.91
2022-08-30T04:50:30.009Z,99293.25
2022-08-30T04:51:32.980Z,99291.63
2022-08-30T04:52:35.159Z,99300.22
2022-08-30T04:53:37.726Z,99295.16
2022-08-30T04:54:40.126Z,99299.00
2022-08-30T04:55:43.684Z,99299.94
2022-08-30T04:56:48.539Z,99306.38
2022-08-30T04:57:51.698Z,99300.13
2022-08-30T04:58:55.571Z,99293.03
2022-08-30T04:59:57.860Z,99304.09
2022-08-30T05:01:00.212Z,99294.81
2022-08-30T05:02:02.650Z,99301.94
2022-08-30T05:03:04.985Z,99302.69
2022-08-30T05:04:07.443Z,99296.81
2022-08-30T05:05:29.114Z,99293.94
2022-08-30T05:06:31.440Z,99296.38
2022-08-30T05:07:33.857Z,99298.63
2022-08-30T05:08:35.995Z,99302.81
2022-08-30T05:09:38.108Z,99299.28
2022-08-30T05:10:46.731Z,99300.16
2022-08-30T05:11:49.228Z,99301.72
2022-08-30T05:12:51.335Z,99307.44
2022-08-30T05:13:54.010Z,99301.91
2022-08-30T05:14:58.880Z,99309.97
2022-08-30T05:16:02.181Z,99316.47
2022-08-30T05:17:04.890Z,99301.66
2022-08-30T05:18:09.091Z,99304.16
2022-08-30T05:19:15.540Z,99303.91
2022-08-30T05:20:18.162Z,99310.00
2022-08-30T05:21:24.051Z,99307.41
2022-08-30T05:22:26.091Z,99309.50
2022-08-30T05:23:28.410Z,99312.09
2022-08-30T05:24:32.242Z,99309.28
2022-08-30T05:25:39.319Z,99312.91
2022-08-30T05:26:41.425Z,99310.78
2022-08-30T05:27:43.676Z,99309.97
2022-08-30T05:28:47.004Z,99310.84
2022-08-30T05:29:51.091Z,99317.19
2022-08-30T05:30:53.508Z,99305.94
2022-08-30T05:31:55.680Z,99314.69
2022-08-30T05:32:58.279Z,99318.28
2022-08-30T05:34:03.080Z,99317.56
2022-08-30T05:35:07.020Z,99320.16
2022-08-30T05:36:10.828Z,99311.34
2022-08-30T05:37:12.896Z,99311.88
2022-08-30T05:38:15.343Z,99318.53
2022-08-30T05:39:17.640Z,99322.06
2022-08-30T05:40:23.868Z,99326.34
2022-08-30T05:41:27.329Z,99318.66
2022-08-30T05:42:29.464Z,99326.97
2022-08-30T05:43:31.823Z,99318.69
2022-08-30T05:44:34.728Z,99322.06
2022-08-30T05:45:37.861Z,99320.19
2022-08-30T05:46:45.769Z,99325.00
2022-08-30T05:47:48.241Z,99326.31
2022-08-30T05:48:51.590Z,99328.97
2022-08-30T05:49:54.020Z,99316.72
2022-08-30T05:51:24.608Z,99321.50
2022-08-30T05:52:26.701Z,99315.91
2022-08-30T05:53:28.844Z,99326.94
2022-08-30T05:54:31.000Z,99329.59
2022-08-30T05:55:33.275Z,99326.50
2022-08-30T05:56:37.846Z,99322.00
2022-08-30T05:57:41.418Z,99330.91
2022-08-30T05:58:44.180Z,99322.34
2022-08-30T05:59:46.668Z,99326.41
2022-08-30T06:00:48.916Z,99324.59
2022-08-30T06:01:51.029Z,99323.13
2022-08-30T06:02:54.709Z,99329.91
2022-08-30T06:04:02.946Z,99329.16
2022-08-30T06:05:06.323Z,99325.75
2022-08-30T06:06:08.567Z,99327.78
2022-08-30T06:07:15.301Z,99334.47
2022-08-30T06:08:18.754Z,99335.75
2022-08-30T06:09:21.999Z,99328.97
2022-08-30T06:10:24.399Z,99335.69
2022-08-30T06:11:27.503Z,99331.19
2022-08-30T06:12:30.066Z,99335.97
2022-08-30T06:13:32.849Z,99326.16
2022-08-30T06:14:34.982Z,99335.56
2022-08-30T06:15:37.703Z,99331.53
2022-08-30T06:16:41.316Z,99325.19
2022-08-30T06:17:43.323Z,99331.75
2022-08-30T06:18:46.108Z,99321.94
2022-08-30T06:19:48.343Z,99334.63
2022-08-30T06:20:51.455Z,99324.09
2022-08-30T06:21:53.490Z,99327.84
2022-08-30T06:22:55.805Z,99333.25
2022-08-30T06:23:58.689Z,99333.72
2022-08-30T06:25:00.986Z,99328.28
2022-08-30T06:26:06.370Z,99329.72
2022-08-30T06:27:10.999Z,99327.50
2022-08-30T06:28:13.702Z,99335.19
2022-08-30T06:29:19.563Z,99333.28
2022-08-30T06:30:21.704Z,99336.94
2022-08-30T06:31:26.959Z,99340.03
2022-08-30T06:32:29.776Z,99338.50
2022-08-30T06:33:31.858Z,99333.72
2022-08-30T06:34:33.963Z,99333.09
2022-08-30T06:35:46.797Z,99330.50
2022-08-30T06:36:54.544Z,99338.03
2022-08-30T06:37:59.446Z,99333.91
2022-08-30T06:39:01.617Z,99333.16
2022-08-30T06:40:04.495Z,99337.47
2022-08-30T06:41:08.575Z,99337.28
2022-08-30T06:42:10.676Z,99334.09
2022-08-30T06:43:12.773Z,99339.13
2022-08-30T06:44:15.167Z,99336.34
2022-08-30T06:45:20.718Z,99344.44
2022-08-30T06:46:29.269Z,99346.53
2022-08-30T06:47:31.410Z,99334.81
2022-08-30T06:48:34.065Z,99334.03
2022-08-30T06:49:36.251Z,99332.50
2022-08-30T06:50:38.439Z,99337.41
2022-08-30T06:52:04.263Z,99334.41
2022-08-30T06:53:06.304Z,99331.72
2022-08-30T06:54:10.858Z,99336.53
2022-08-30T06:55:16.574Z,99325.97
2022-08-30T06:56:19.790Z,99334.09
2022-08-30T06:57:21.915Z,99330.50
2022-08-30T06:58:24.382Z,99326.25
2022-08-30T06:59:27.444Z,99328.50
2022-08-30T07:00:30.427Z,99325.75
2022-08-30T07:01:32.978Z,99333.66
2022-08-30T07:02:38.546Z,99330.94
2022-08-30T07:03:41.178Z,99330.84
2022-08-30T07:04:43.290Z,99329.25
2022-08-30T07:05:47.653Z,99338.88
2022-08-30T07:06:49.817Z,99324.72
2022-08-30T07:07:54.830Z,99336.72
2022-08-30T07:08:57.642Z,99335.41
2022-08-30T07:10:02.527Z,99333.72
2022-08-30T07:11:05.668Z,99342.31
2022-08-30T07:12:08.820Z,99336.94
2022-08-30T07:13:11.523Z,99336.94
2022-08-30T07:14:13.651Z,99326.13
2022-08-30T07:15:16.804Z,99335.28
2022-08-30T07:16:19.034Z,99335.50
2022-08-30T07:17:39.746Z,99325.41
2022-08-30T07:18:50.788Z,99329.88
2022-08-30T07:19:52.949Z,99327.78
2022-08-30T07:20:55.304Z,99335.47
2022-08-30T07:21:59.605Z,99336.81
2022-08-30T07:23:03.968Z,99328.09
2022-08-30T07:24:10.111Z,99324.03
2022-08-30T07:25:14.778Z,99322.19
2022-08-30T07:26:21.203Z,99327.28
2022-08-30T07:27:23.546Z,99322.38
2022-08-30T07:28:25.852Z,99325.44
2022-08-30T07:29:27.948Z,99327.44
2022-08-30T07:30:29.963Z,99328.44
2022-08-30T07:31:33.624Z,99328.78
2022-08-30T07:32:35.755Z,99327.72
2022-08-30T07:33:38.349Z,99317.66
2022-08-30T07:34:40.481Z,99324.53
2022-08-30T07:35:43.968Z,99329.06
2022-08-30T07:36:46.096Z,99328.41
2022-08-30T07:37:48.206Z,99324.28
2022-08-30T07:38:51.736Z,99328.94
2022-08-30T07:39:54.169Z,99324.41
2022-08-30T07:40:59.330Z,99328.16
2022-08-30T07:42:02.456Z,99323.56
2022-08-30T07:43:05.836Z,99325.34
2022-08-30T07:44:09.211Z,99332.09
2022-08-30T07:45:12.405Z,99333.66
2022-08-30T07:46:15.068Z,99337.28
2022-08-30T07:47:17.321Z,99330.38
2022-08-30T07:48:19.886Z,99335.19
2022-08-30T07:49:22.017Z,99331.31
2022-08-30T07:50:24.404Z,99335.38
2022-08-30T07:51:28.874Z,99322.75
2022-08-30T07:52:31.605Z,99342.16
2022-08-30T07:53:33.677Z,99330.31
2022-08-30T07:54:37.859Z,99331.59
2022-08-30T07:55:42.788Z,99332.22
2022-08-30T07:56:44.961Z,99324.91
2022-08-30T07:57:47.096Z,99327.59
2022-08-30T07:58:49.320Z,99326.03
2022-08-30T07:59:53.361Z,99322.59
2022-08-30T08:00:59.489Z,99321.56
2022-08-30T08:02:01.634Z,99321.56
2022-08-30T08:03:08.915Z,99335.78
2022-08-30T08:04:11.000Z,99327.28
2022-08-30T08:05:17.335Z,99331.38
2022-08-30T08:06:22.434Z,99323.75
2022-08-30T08:07:24.587Z,99332.66
2022-08-30T08:08:26.870Z,99325.16
2022-08-30T08:09:29.066Z,99329.00
2022-08-30T08:10:32.435Z,99340.53
2022-08-30T08:11:37.209Z,99334.19
2022-08-30T08:12:40.548Z,99343.59
2022-08-30T08:13:47.267Z,99331.47
2022-08-30T08:14:56.482Z,99331.88
2022-08-30T08:15:58.633Z,99330.28
2022-08-30T08:17:01.443Z,99332.53
2022-08-30T08:18:03.843Z,99333.78
2022-08-30T08:19:09.270Z,99323.78
2022-08-30T08:20:11.584Z,99325.56
2022-08-30T08:21:13.892Z,99334.41
2022-08-30T08:22:23.316Z,99334.06
2022-08-30T08:23:25.730Z,99332.63
2022-08-30T08:24:28.284Z,99330.28
2022-08-30T08:25:33.030Z,99325.13
2022-08-30T08:26:37.057Z,99327.25
2022-08-30T08:27:39.267Z,99326.13
2022-08-30T08:28:45.212Z,99327.16
2022-08-30T08:29:47.320Z,99329.00
2022-08-30T08:30:50.373Z,99329.31
2022-08-30T08:31:52.432Z,99326.44
2022-08-30T08:32:57.292Z,99326.47
2022-08-30T08:35:03.855Z,99331.75
2022-08-30T08:36:09.280Z,99325.03
2022-08-30T08:37:11.751Z,99320.94
2022-08-30T08:38:13.784Z,99323.22
2022-08-30T08:39:18.899Z,99337.44
2022-08-30T08:40:21.362Z,99336.41
2022-08-30T08:41:45.115Z,99329.09
2022-08-30T08:43:22.871Z,99329.22
2022-08-30T08:45:04.613Z,99320.22
2022-08-30T08:46:19.125Z,99324.22
2022-08-30T08:47:53.025Z,99325.56
2022-08-30T08:49:02.316Z,99329.53
2022-08-30T08:50:18.736Z,99325.56
2022-08-30T08:51:42.359Z,99321.22
2022-08-30T08:53:45.275Z,99321.31
2022-08-30T08:54:59.555Z,99327.19
2022-08-30T08:56:15.239Z,99327.25
2022-08-30T08:57:19.393Z,99322.09
2022-08-30T08:58:29.189Z,99319.19
2022-08-30T08:59:31.407Z,99336.13
2022-08-30T09:00:33.666Z,99323.81
2022-08-30T09:01:38.643Z,99323.50
2022-08-30T09:02:45.307Z,99328.59
2022-08-30T09:03:48.297Z,99329.91
2022-08-30T09:04:53.978Z,99331.00
2022-08-30T09:05:57.690Z,99334.78
2022-08-30T09:07:24.894Z,99332.06
2022-08-30T09:08:27.602Z,99337.63
2022-08-30T09:09:38.856Z,99325.19
2022-08-30T09:11:05.577Z,99329.16
2022-08-30T09:12:12.051Z,99335.47
2022-08-30T09:13:14.765Z,99329.84
2022-08-30T09:14:30.363Z,99331.59
2022-08-30T09:15:35.160Z,99327.28
2022-08-30T09:16:52.536Z,99325.94
2022-08-30T09:18:16.930Z,99325.56
2022-08-30T09:19:27.849Z,99324.91
2022-08-30T09:20:34.692Z,99329.44
2022-08-30T09:21:37.023Z,99324.38
2022-08-30T09:22:46.770Z,99329.94
2022-08-30T09:23:59.345Z,99333.56
2022-08-30T09:25:07.265Z,99337.00
2022-08-30T09:26:09.835Z,99340.91
2022-08-30T09:27:33.442Z,99335.19
2022-08-30T09:28:49.798Z,99343.47
2022-08-30T09:29:53.423Z,99337.69
2022-08-30T09:31:11.349Z,99336.91
2022-08-30T09:32:26.263Z,99329.31
2022-08-30T09:33:29.098Z,99336.34
2022-08-30T09:34:33.555Z,99339.88
2022-08-30T09:35:46.937Z,99342.25
2022-08-30T09:36:52.500Z,99341.38
2022-08-30T09:38:05.136Z,99335.03
2022-08-30T09:39:19.223Z,99347.56
2022-08-30T09:40:27.354Z,99329.00
2022-08-30T09:41:42.711Z,99336.00
2022-08-30T09:43:01.086Z,99332.47
2022-08-30T09:44:14.223Z,99334.56
2022-08-30T09:45:28.508Z,99333.66
2022-08-30T09:46:31.791Z,99338.16
2022-08-30T09:47:34.606Z,99337.06
2022-08-30T09:48:55.128Z,99335.69
2022-08-30T09:50:28.287Z,99338.28
2022-08-30T09:51:47.351Z,99340.56
2022-08-30T09:53:11.973Z,99331.03
2022-08-30T09:54:17.839Z,99334.19
2022-08-30T09:55:39.026Z,99325.38
2022-08-30T09:56:53.605Z,99336.13
2022-08-30T09:58:15.216Z,99330.06
2022-08-30T09:59:42.707Z,99337.97
2022-08-30T10:01:10.026Z,99332.66
2022-08-30T10:02:30.525Z,99333.50
2022-08-30T10:03:59.590Z,99332.75
2022-08-30T10:05:13.964Z,99332.34
2022-08-30T10:06:45.802Z,99336.06
2022-08-30T10:08:18.204Z,99326.00
2022-08-30T10:09:48.982Z,99335.50
2022-08-30T10:11:01.211Z,99328.25
2022-08-30T10:12:12.764Z,99334.56
2022-08-30T10:13:26.742Z,99327.88
2022-08-30T10:14:48.920Z,99336.25
2022-08-30T10:16:23.722Z,99328.59
2022-08-30T10:17:48.998Z,99327.94
2022-08-30T10:19:02.705Z,99340.28
2022-08-30T10:20:17.898Z,99324.09
2022-08-30T10:21:33.975Z,99335.50
2022-08-30T10:22:58.668Z,99330.41
2022-08-30T10:24:09.058Z,99331.66
2022-08-30T10:25:17.809Z,99325.50
2022-08-30T10:26:32.208Z,99328.72
2022-08-30T10:27:46.168Z,99328.25
2022-08-30T10:28:55.977Z,99320.13
2022-08-30T10:30:24.457Z,99328.84
2022-08-30T10:31:52.449Z,99325.97
2022-08-30T10:33:16.398Z,99331.78
2022-08-30T10:34:45.627Z,99330.03
2022-08-30T10:35:55.232Z,99337.22
2022-08-30T10:37:04.635Z,99325.09
2022-08-30T10:38:15.905Z,99317.91
2022-08-30T10:39:24.208Z,99319.81
2022-08-30T10:40:59.330Z,99329.25
2022-08-30T10:42:25.867Z,99321.22
2022-08-30T10:43:45.556Z,99323.28
2022-08-30T10:45:03.751Z,99321.72
2022-08-30T10:46:14.547Z,99324.03
2022-08-30T10:47:36.910Z,99327.09
2022-08-30T10:48:47.521Z,99321.06
2022-08-30T10:49:55.750Z,99323.69
2022-08-30T10:51:04.932Z,99330.50
2022-08-30T10:52:29.955Z,99332.09
2022-08-30T10:53:45.026Z,99327.59
2022-08-30T10:54:59.169Z,99327.31
2022-08-30T10:56:03.973Z,99324.28
2022-08-30T10:57:06.428Z,99329.44
2022-08-30T10:58:09.098Z,99322.31
2022-08-30T10:59:12.142Z,99320.06
2022-08-30T11:00:26.730Z,99329.38
2022-08-30T11:01:47.612Z,99333.19
2022-08-30T11:02:58.668Z,99326.63
2022-08-30T11:04:45.631Z,99324.06
2022-08-30T11:06:12.844Z,99329.63
2022-08-30T11:07:21.460Z,99317.78
2022-08-30T11:08:49.255Z,99318.31
2022-08-30T11:10:21.665Z,99327.19
2022-08-30T11:11:58.936Z,99325.53
2022-08-30T11:13:08.937Z,99328.19
2022-08-30T11:14:15.901Z,99315.75
2022-08-30T11:15:25.145Z,99311.75
2022-08-30T11:16:54.896Z,99321.13
2022-08-30T11:18:00.372Z,99316.56
2022-08-30T11:19:02.956Z,99319.81
2022-08-30T11:20:06.281Z,99317.78
2022-08-30T11:21:23.524Z,99319.78
2022-08-30T11:22:31.802Z,99311.31
2022-08-30T11:23:36.838Z,99313.97
2022-08-30T11:25:10.269Z,99313.22
2022-08-30T11:26:16.995Z,99316.75
2022-08-30T11:27:41.527Z,99312.44
2022-08-30T11:28:46.476Z,99319.72
2022-08-30T11:29:49.168Z,99310.91
2022-08-30T11:31:04.415Z,99310.69
2022-08-30T11:32:13.705Z,99311.13
2022-08-30T11:33:22.897Z,99307.00
2022-08-30T11:34:43.933Z,99316.84
2022-08-30T11:35:50.219Z,99307.81
2022-08-30T11:36:52.969Z,99308.53
2022-08-30T11:37:55.709Z,99310.59
2022-08-30T11:39:01.377Z,99303.66
2022-08-30T11:40:20.856Z,99312.91
2022-08-30T11:41:42.072Z,99307.94
2022-08-30T11:42:49.146Z,99306.66
2022-08-30T11:43:54.468Z,99298.09
2022-08-30T11:45:25.354Z,99299.66
2022-08-30T11:46:28.892Z,99309.06
2022-08-30T11:47:50.978Z,99311.72
2022-08-30T11:49:13.387Z,99303.53
2022-08-30T11:50:19.434Z,99306.75
2022-08-30T11:51:33.586Z,99308.69
2022-08-30T11:52:50.098Z,99310.41
2022-08-30T11:54:04.173Z,99306.75
2022-08-30T11:55:23.387Z,99311.41
2022-08-30T11:56:33.687Z,99301.28
2022-08-30T11:58:07.217Z,99297.94
2022-08-30T11:59:23.012Z,99311.69
2022-08-30T12:00:35.482Z,99308.56
2022-08-30T12:01:50.862Z,99300.06
2022-08-30T12:03:00.394Z,99302.22
2022-08-30T12:04:29.046Z,99306.44
2022-08-30T12:05:54.946Z,99303.38
2022-08-30T12:07:04.506Z,99301.28
2022-08-30T12:08:18.591Z,99295.31
2022-08-30T12:09:30.363Z,99295.50
2022-08-30T12:10:56.369Z,99298.72
2022-08-30T12:12:08.031Z,99298.41
2022-08-30T12:13:30.905Z,99288.72
2022-08-30T12:14:48.525Z,99286.84
2022-08-30T12:15:55.734Z,99283.34
2022-08-30T12:17:16.542Z,99282.34
2022-08-30T12:18:30.050Z,99280.56
2022-08-30T12:19:35.363Z,99278.72
2022-08-30T12:20:45.175Z,99278.50
2022-08-30T12:21:59.213Z,99274.44
2022-08-30T12:23:19.258Z,99277.72
2022-08-30T12:24:27.695Z,99273.56
2022-08-30T12:25:33.063Z,99264.47
2022-08-30T12:26:42.900Z,99278.72
2022-08-30T12:27:45.250Z,99270.41
2022-08-30T12:28:49.834Z,99272.75
2022-08-30T12:29:59.512Z,99267.09
2022-08-30T12:31:11.744Z,99263.91
2022-08-30T12:32:22.512Z,99275.81
2022-08-30T12:33:39.517Z,99264.94
2022-08-30T12:34:43.760Z,99268.03
2022-08-30T12:35:46.013Z,99270.78
2022-08-30T12:37:08.615Z,99268.22
2022-08-30T12:38:27.462Z,99271.06
2022-08-30T12:39:39.302Z,99273.88
2022-08-30T12:40:58.034Z,99277.56
2022-08-30T12:42:12.596Z,99274.41
2022-08-30T12:43:40.241Z,99269.81
2022-08-30T12:44:45.703Z,99275.75
2022-08-30T12:45:50.714Z,99278.03
2022-08-30T12:47:03.240Z,99272.06
2022-08-30T12:48:10.237Z,99269.22
2022-08-30T12:49:16.973Z,99269.72
2022-08-30T12:50:26.799Z,99263.72
2022-08-30T12:51:41.427Z,99271.06
2022-08-30T12:52:46.966Z,99271.84
2022-08-30T12:53:51.261Z,99266.13
2022-08-30T12:54:56.768Z,99264.22
2022-08-30T12:56:05.029Z,99268.63
2022-08-30T12:57:25.506Z,99262.44
2022-08-30T12:58:44.617Z,99265.84
2022-08-30T12:59:59.585Z,99269.09
2022-08-30T13:01:28.602Z,99268.50
2022-08-30T13:02:52.339Z,99257.63
2022-08-30T13:04:02.642Z,99257.63
2022-08-30T13:05:47.747Z,99258.38
2022-08-30T13:07:00.307Z,99252.16
2022-08-30T13:08:28.085Z,99259.09
2022-08-30T13:09:43.087Z,99255.47
2022-08-30T13:11:10.366Z,99251.72
2022-08-30T13:12:25.909Z,99246.97